createdAt,value
2023-09-24T00:00:55.477Z,2.92
2023-09-24T00:03:21.966Z,2.90
2023-09-24T00:05:48.596Z,2.90
2023-09-24T00:08:15.062Z,2.88
2023-09-24T00:10:41.611Z,3.17
2023-09-24T00:13:08.164Z,3.15
2023-09-24T00:15:35.940Z,3.03
2023-09-24T00:18:02.541Z,2.70
2023-09-24T00:20:29.167Z,3.10
2023-09-24T00:22:55.765Z,3.10
2023-09-24T00:25:22.255Z,2.83
2023-09-24T00:27:48.824Z,3.08
2023-09-24T00:30:15.305Z,3.15
2023-09-24T00:32:43.202Z,3.38
2023-09-24T00:35:09.788Z,3.30
2023-09-24T00:37:36.212Z,3.55
2023-09-24T00:40:02.655Z,3.28
2023-09-24T00:42:29.177Z,3.25
2023-09-24T00:44:55.705Z,3.50
2023-09-24T00:47:23.150Z,3.03
2023-09-24T00:49:51.254Z,3.33
2023-09-24T00:52:18.741Z,3.38
2023-09-24T00:54:45.493Z,3.30
2023-09-24T00:57:12.451Z,3.50
2023-09-24T00:59:39.008Z,3.37
2023-09-24T01:02:05.789Z,3.10
2023-09-24T01:04:32.737Z,3.13
2023-09-24T01:07:00.500Z,3.50
2023-09-24T01:09:26.952Z,2.97
2023-09-24T01:11:53.398Z,3.10
2023-09-24T01:14:20.016Z,3.45
2023-09-24T01:16:46.671Z,3.28
2023-09-24T01:19:13.265Z,3.40
2023-09-24T01:21:42.094Z,3.13
2023-09-24T01:24:10.435Z,3.60
2023-09-24T01:26:36.901Z,3.10
2023-09-24T01:29:03.364Z,3.17
2023-09-24T01:31:29.866Z,3.38
2023-09-24T01:33:56.740Z,3.55
2023-09-24T01:36:23.399Z,3.17
2023-09-24T01:38:49.935Z,3.13
2023-09-24T01:41:17.994Z,3.13
2023-09-24T01:43:44.574Z,3.15
2023-09-24T01:46:11.886Z,3.20
2023-09-24T01:48:38.403Z,3.43
2023-09-24T01:51:09.108Z,3.20
2023-09-24T01:53:35.628Z,3.30
2023-09-24T01:56:02.174Z,3.03
2023-09-24T01:58:30.026Z,3.30
2023-09-24T02:00:56.566Z,3.10
2023-09-24T02:03:23.041Z,3.13
2023-09-24T02:05:49.606Z,3.10
2023-09-24T02:08:16.124Z,3.30
2023-09-24T02:10:42.655Z,2.97
2023-09-24T02:13:09.100Z,3.30
2023-09-24T02:15:38.690Z,3.22
2023-09-24T02:18:05.685Z,3.33
2023-09-24T02:20:32.543Z,3.25
2023-09-24T02:23:03.949Z,3.20
2023-09-24T02:25:32.544Z,3.20
2023-09-24T02:28:00.435Z,3.10
2023-09-24T02:30:31.275Z,3.38
2023-09-24T02:33:02.736Z,3.35
2023-09-24T02:35:30.056Z,3.40
2023-09-24T02:37:56.740Z,3.37
2023-09-24T02:40:23.779Z,3.30
2023-09-24T02:42:52.676Z,3.45
2023-09-24T02:45:19.781Z,3.33
2023-09-24T02:47:47.598Z,3.45
2023-09-24T02:50:15.443Z,3.53
2023-09-24T02:52:43.060Z,3.25
2023-09-24T02:55:11.336Z,3.10
2023-09-24T02:57:38.156Z,3.28
2023-09-24T03:00:06.096Z,3.08
2023-09-24T03:02:32.592Z,3.07
2023-09-24T03:04:59.103Z,3.30
2023-09-24T03:07:27.020Z,3.72
2023-09-24T03:09:56.685Z,3.50
2023-09-24T03:12:23.232Z,3.53
2023-09-24T03:14:49.713Z,3.47
2023-09-24T03:17:16.172Z,3.95
2023-09-24T03:19:42.598Z,3.58
2023-09-24T03:22:09.167Z,3.63
2023-09-24T03:24:37.313Z,3.70
2023-09-24T03:27:03.771Z,3.23
2023-09-24T03:29:30.315Z,3.53
2023-09-24T03:31:56.840Z,3.60
2023-09-24T03:34:23.386Z,3.92
2023-09-24T03:36:49.785Z,3.53
2023-09-24T03:39:16.389Z,3.80
2023-09-24T03:41:44.355Z,4.05
2023-09-24T03:44:10.960Z,3.72
2023-09-24T03:46:37.476Z,3.97
2023-09-24T03:49:03.934Z,3.67
2023-09-24T03:51:30.329Z,3.17
2023-09-24T03:53:56.806Z,3.50
2023-09-24T03:56:23.362Z,3.25
2023-09-24T03:58:51.157Z,3.40
2023-09-24T04:01:17.734Z,3.30
2023-09-24T04:03:44.457Z,3.47
2023-09-24T04:06:11.556Z,3.20
2023-09-24T04:08:38.144Z,3.25
2023-09-24T04:11:06.978Z,3.10
2023-09-24T04:13:33.410Z,2.88
2023-09-24T04:16:09.208Z,3.00
2023-09-24T04:18:35.981Z,2.78
2023-09-24T04:21:02.632Z,2.70
2023-09-24T04:23:29.244Z,2.72
2023-09-24T04:25:55.682Z,2.80
2023-09-24T04:28:22.191Z,2.83
2023-09-24T04:30:48.622Z,2.42
2023-09-24T04:33:16.450Z,2.30
2023-09-24T04:35:43.072Z,2.92
2023-09-24T04:38:09.518Z,2.85
2023-09-24T04:40:36.115Z,2.80
2023-09-24T04:43:03.167Z,2.50
2023-09-24T04:45:29.597Z,2.58
2023-09-24T04:47:56.144Z,2.80
2023-09-24T04:50:24.604Z,2.20
2023-09-24T04:52:51.256Z,2.20
2023-09-24T04:55:18.035Z,2.22
2023-09-24T04:57:53.484Z,2.45
2023-09-24T05:00:20.120Z,2.67
2023-09-24T05:02:47.076Z,2.08
2023-09-24T05:05:15.906Z,2.20
2023-09-24T05:07:44.123Z,2.20
2023-09-24T05:10:10.994Z,2.33
2023-09-24T05:12:37.547Z,2.30
2023-09-24T05:15:05.464Z,1.90
2023-09-24T05:17:32.182Z,1.90
2023-09-24T05:19:58.763Z,2.00
2023-09-24T05:22:25.554Z,2.22
2023-09-24T05:24:53.355Z,1.83
2023-09-24T05:27:19.857Z,2.42
2023-09-24T05:29:46.946Z,2.10
2023-09-24T05:32:13.713Z,1.98
2023-09-24T05:34:40.111Z,2.10
2023-09-24T05:37:06.645Z,2.30
2023-09-24T05:39:33.048Z,2.17
2023-09-24T05:42:00.926Z,2.10
2023-09-24T05:44:27.341Z,1.70
2023-09-24T05:46:53.819Z,2.50
2023-09-24T05:49:20.190Z,1.88
2023-09-24T05:51:47.350Z,2.00
2023-09-24T05:54:13.822Z,2.00
2023-09-24T05:56:40.412Z,2.13
2023-09-24T05:59:08.577Z,2.10
2023-09-24T06:01:35.180Z,2.05
2023-09-24T06:04:01.737Z,2.20
2023-09-24T06:06:28.408Z,4.10
2023-09-24T06:08:55.127Z,1.95
2023-09-24T06:11:21.659Z,1.90
2023-09-24T06:13:48.467Z,1.98
2023-09-24T06:16:16.590Z,2.17
2023-09-24T06:18:43.108Z,1.90
2023-09-24T06:21:14.628Z,1.75
2023-09-24T06:23:41.110Z,1.70
2023-09-24T06:26:07.705Z,2.20
2023-09-24T06:28:34.187Z,1.90
2023-09-24T06:31:01.287Z,1.60
2023-09-24T06:33:29.271Z,1.80
2023-09-24T06:35:56.082Z,1.70
2023-09-24T06:38:23.116Z,1.80
2023-09-24T06:40:56.813Z,1.80
2023-09-24T06:43:23.340Z,1.60
2023-09-24T06:45:49.857Z,1.55
2023-09-24T06:48:21.601Z,1.58
2023-09-24T06:50:49.785Z,1.70
2023-09-24T06:53:16.414Z,1.50
2023-09-24T06:55:43.308Z,1.40
2023-09-24T06:58:09.857Z,1.50
2023-09-24T07:00:36.446Z,1.60
2023-09-24T07:03:03.401Z,1.40
2023-09-24T07:05:29.997Z,1.55
2023-09-24T07:07:57.792Z,1.30
2023-09-24T07:10:24.606Z,1.52
2023-09-24T07:12:52.390Z,1.42
2023-09-24T07:15:18.899Z,1.50
2023-09-24T07:17:45.395Z,1.58
2023-09-24T07:20:13.205Z,1.47
2023-09-24T07:22:39.726Z,1.15
2023-09-24T07:25:08.280Z,1.33
2023-09-24T07:27:34.802Z,1.60
2023-09-24T07:30:01.306Z,1.40
2023-09-24T07:32:27.958Z,1.40
2023-09-24T07:34:54.458Z,1.50
2023-09-24T07:37:20.930Z,1.20
2023-09-24T07:39:47.399Z,1.58
2023-09-24T07:42:15.192Z,1.50
2023-09-24T07:44:41.732Z,1.43
2023-09-24T07:47:08.550Z,1.35
2023-09-24T07:49:35.001Z,1.38
2023-09-24T07:52:01.525Z,1.33
2023-09-24T07:54:27.967Z,1.25
2023-09-24T07:56:54.466Z,1.40
2023-09-24T07:59:22.306Z,1.10
2023-09-24T08:01:48.704Z,1.38
2023-09-24T08:04:15.154Z,1.30
2023-09-24T08:06:41.557Z,1.38
2023-09-24T08:09:23.190Z,1.60
2023-09-24T08:11:52.280Z,1.10
2023-09-24T08:14:18.828Z,1.27
2023-09-24T08:16:46.627Z,1.65
2023-09-24T08:19:13.379Z,1.40
2023-09-24T08:21:39.804Z,1.40
2023-09-24T08:24:07.038Z,1.33
2023-09-24T08:26:33.655Z,1.35
2023-09-24T08:29:00.435Z,1.20
2023-09-24T08:31:26.985Z,1.10
2023-09-24T08:33:54.853Z,1.30
2023-09-24T08:36:21.537Z,1.60
2023-09-24T08:38:48.107Z,1.20
2023-09-24T08:41:14.623Z,1.33
2023-09-24T08:43:42.838Z,1.10
2023-09-24T08:46:10.146Z,1.20
2023-09-24T08:48:37.972Z,1.10
2023-09-24T08:51:07.963Z,1.25
2023-09-24T08:53:36.033Z,1.10
2023-09-24T08:56:11.622Z,1.40
2023-09-24T08:58:57.632Z,1.30
2023-09-24T09:01:24.251Z,1.02
2023-09-24T09:03:50.940Z,1.15
2023-09-24T09:06:31.392Z,1.00
2023-09-24T09:08:59.730Z,1.10
2023-09-24T09:11:38.997Z,1.13
2023-09-24T09:14:05.786Z,1.33
2023-09-24T09:16:32.368Z,1.10
2023-09-24T09:19:00.518Z,1.08
2023-09-24T09:21:28.450Z,1.10
2023-09-24T09:23:55.516Z,1.23
2023-09-24T09:26:26.344Z,1.20
2023-09-24T09:28:52.837Z,1.20
2023-09-24T09:31:19.313Z,1.33
2023-09-24T09:33:46.368Z,1.10
2023-09-24T09:36:23.070Z,1.23
2023-09-24T09:38:51.564Z,1.10
2023-09-24T09:41:19.502Z,1.00
2023-09-24T09:43:47.246Z,1.10
2023-09-24T09:46:18.458Z,1.40
2023-09-24T09:48:51.696Z,1.20
2023-09-24T09:51:20.762Z,1.10
2023-09-24T09:53:48.171Z,0.90
2023-09-24T09:56:16.789Z,1.30
2023-09-24T09:58:44.418Z,1.10
2023-09-24T10:01:10.925Z,1.10
2023-09-24T10:03:40.453Z,1.02
2023-09-24T10:06:09.433Z,1.00
2023-09-24T10:08:41.223Z,1.08
2023-09-24T10:11:09.186Z,0.90
2023-09-24T10:13:47.662Z,0.97
2023-09-24T10:16:34.886Z,1.05
2023-09-24T10:19:02.693Z,1.20
2023-09-24T10:21:30.167Z,0.90
2023-09-24T10:23:57.520Z,0.93
2023-09-24T10:26:47.214Z,1.10
2023-09-24T10:29:16.302Z,0.98
2023-09-24T10:32:13.694Z,0.90
2023-09-24T10:35:08.300Z,1.00
2023-09-24T10:37:35.199Z,0.90
2023-09-24T10:40:06.285Z,0.93
2023-09-24T10:42:34.448Z,0.82
2023-09-24T10:45:26.335Z,0.75
2023-09-24T10:47:52.820Z,0.93
2023-09-24T10:50:20.945Z,1.10
2023-09-24T10:52:48.721Z,0.97
2023-09-24T10:55:18.831Z,0.90
2023-09-24T10:57:45.707Z,1.20
2023-09-24T11:00:16.860Z,1.08
2023-09-24T11:02:46.521Z,1.00
2023-09-24T11:05:13.241Z,1.07
2023-09-24T11:07:39.656Z,1.00
2023-09-24T11:10:06.890Z,0.75
2023-09-24T11:12:33.356Z,1.42
2023-09-24T11:15:15.016Z,1.02
2023-09-24T11:17:42.402Z,1.00
2023-09-24T11:20:10.631Z,1.00
2023-09-24T11:22:37.216Z,0.90
2023-09-24T11:25:10.967Z,0.90
2023-09-24T11:27:45.742Z,1.02
2023-09-24T11:30:12.858Z,0.93
2023-09-24T11:32:39.484Z,0.90
2023-09-24T11:35:07.335Z,0.93
2023-09-24T11:37:49.540Z,0.90
2023-09-24T11:40:27.061Z,1.05
2023-09-24T11:42:54.800Z,1.03
2023-09-24T11:45:41.976Z,1.02
2023-09-24T11:48:09.730Z,1.10
2023-09-24T11:50:36.383Z,0.88
2023-09-24T11:53:04.547Z,0.93
2023-09-24T11:55:31.489Z,1.10
2023-09-24T11:57:57.934Z,1.00
2023-09-24T12:00:25.169Z,0.85
2023-09-24T12:02:51.804Z,1.05
2023-09-24T12:05:32.409Z,1.10
2023-09-24T12:08:00.687Z,1.07
2023-09-24T12:10:28.622Z,1.10
2023-09-24T12:12:55.479Z,0.95
2023-09-24T12:15:21.997Z,1.15
2023-09-24T12:17:48.471Z,0.80
2023-09-24T12:20:15.286Z,0.90
2023-09-24T12:22:42.823Z,0.93
2023-09-24T12:25:09.926Z,1.10
2023-09-24T12:27:38.072Z,1.20
2023-09-24T12:30:05.905Z,1.10
2023-09-24T12:32:32.595Z,1.07
2023-09-24T12:34:59.477Z,1.10
2023-09-24T12:37:28.690Z,1.10
2023-09-24T12:39:57.661Z,0.90
2023-09-24T12:42:24.089Z,0.90
2023-09-24T12:44:52.008Z,0.80
2023-09-24T12:47:18.462Z,0.98
2023-09-24T12:49:45.002Z,0.77
2023-09-24T12:52:11.446Z,0.82
2023-09-24T12:54:37.831Z,0.75
2023-09-24T12:57:04.327Z,0.80
2023-09-24T12:59:30.771Z,0.90
2023-09-24T13:01:58.561Z,0.80
2023-09-24T13:04:25.195Z,0.90
2023-09-24T13:06:51.964Z,1.00
2023-09-24T13:09:18.450Z,0.90
2023-09-24T13:11:45.458Z,0.90
2023-09-24T13:14:12.943Z,0.98
2023-09-24T13:16:39.647Z,0.90
2023-09-24T13:19:07.613Z,1.00
2023-09-24T13:21:34.123Z,1.17
2023-09-24T13:24:00.558Z,0.95
2023-09-24T13:26:26.965Z,1.10
2023-09-24T13:28:53.422Z,0.98
2023-09-24T13:31:19.937Z,0.80
2023-09-24T13:33:46.633Z,0.80
2023-09-24T13:36:14.575Z,0.90
2023-09-24T13:38:41.222Z,0.70
2023-09-24T13:41:11.008Z,0.90
2023-09-24T13:43:37.535Z,0.88
2023-09-24T13:46:04.435Z,1.10
2023-09-24T13:48:31.103Z,1.23
2023-09-24T13:50:57.836Z,1.02
2023-09-24T13:53:25.630Z,0.70
2023-09-24T13:55:52.410Z,0.73
2023-09-24T13:58:19.121Z,1.00
2023-09-24T14:00:46.127Z,0.90
2023-09-24T14:03:12.653Z,0.95
2023-09-24T14:05:39.173Z,0.80
2023-09-24T14:08:05.726Z,0.88
2023-09-24T14:10:40.030Z,1.13
2023-09-24T14:13:06.497Z,0.90
2023-09-24T14:15:35.211Z,0.80
2023-09-24T14:18:13.902Z,0.93
2023-09-24T14:20:41.570Z,1.00
2023-09-24T14:23:08.102Z,1.10
2023-09-24T14:25:39.835Z,0.90
2023-09-24T14:28:06.679Z,0.88
2023-09-24T14:30:35.817Z,0.93
2023-09-24T14:33:02.372Z,0.70
2023-09-24T14:35:28.936Z,0.80
2023-09-24T14:37:55.388Z,0.80
2023-09-24T14:40:21.937Z,0.70
2023-09-24T14:42:50.138Z,0.90
2023-09-24T14:45:16.636Z,0.80
2023-09-24T14:47:43.948Z,1.07
2023-09-24T14:50:10.510Z,0.80
2023-09-24T14:52:36.924Z,0.95
2023-09-24T14:55:03.815Z,0.80
2023-09-24T14:57:30.251Z,1.00
2023-09-24T14:59:58.169Z,1.10
2023-09-24T15:02:24.699Z,1.00
2023-09-24T15:04:51.442Z,0.80
2023-09-24T15:07:17.872Z,0.90
2023-09-24T15:09:44.823Z,0.82
2023-09-24T15:12:11.549Z,0.80
2023-09-24T15:14:37.966Z,0.80
2023-09-24T15:17:05.719Z,0.95
2023-09-24T15:19:32.159Z,0.80
2023-09-24T15:21:58.534Z,0.80
2023-09-24T15:24:25.005Z,0.77
2023-09-24T15:26:51.478Z,0.75
2023-09-24T15:29:17.909Z,0.80
2023-09-24T15:31:44.435Z,0.93
2023-09-24T15:34:12.229Z,0.70
2023-09-24T15:36:38.703Z,0.90
2023-09-24T15:39:05.346Z,0.65
2023-09-24T15:41:31.807Z,0.80
2023-09-24T15:43:58.268Z,0.77
2023-09-24T15:46:24.671Z,0.73
2023-09-24T15:48:51.134Z,1.00
2023-09-24T15:51:20.804Z,0.65
2023-09-24T15:53:48.941Z,0.80
2023-09-24T15:56:15.706Z,0.98
2023-09-24T15:58:42.269Z,0.80
2023-09-24T16:01:08.855Z,0.87
2023-09-24T16:03:35.532Z,0.77
2023-09-24T16:06:02.149Z,0.70
2023-09-24T16:08:30.247Z,0.90
2023-09-24T16:10:56.746Z,0.80
2023-09-24T16:13:23.279Z,0.67
2023-09-24T16:15:49.720Z,0.70
2023-09-24T16:18:16.288Z,1.00
2023-09-24T16:20:43.799Z,0.88
2023-09-24T16:23:11.460Z,0.65
2023-09-24T16:25:39.233Z,0.90
2023-09-24T16:28:06.028Z,0.80
2023-09-24T16:30:32.462Z,0.90
2023-09-24T16:32:58.968Z,0.85
2023-09-24T16:35:25.592Z,0.88
2023-09-24T16:37:51.997Z,1.00
2023-09-24T16:40:18.818Z,0.70
2023-09-24T16:42:46.576Z,0.77
2023-09-24T16:45:13.018Z,1.10
2023-09-24T16:47:39.528Z,0.98
2023-09-24T16:50:06.835Z,1.00
2023-09-24T16:52:33.312Z,0.80
2023-09-24T16:54:59.729Z,1.13
2023-09-24T16:57:26.194Z,1.35
2023-09-24T16:59:54.230Z,1.00
2023-09-24T17:02:20.704Z,0.90
2023-09-24T17:04:47.242Z,0.90
2023-09-24T17:07:13.934Z,1.23
2023-09-24T17:10:08.402Z,1.00
2023-09-24T17:12:36.283Z,1.02
2023-09-24T17:15:07.871Z,1.10
2023-09-24T17:17:35.128Z,0.90
2023-09-24T17:20:07.702Z,1.00
2023-09-24T17:22:34.696Z,0.98
2023-09-24T17:25:01.668Z,0.90
2023-09-24T17:27:28.848Z,1.20
2023-09-24T17:29:57.543Z,0.80
2023-09-24T17:32:31.457Z,1.00
2023-09-24T17:35:01.394Z,0.90
2023-09-24T17:37:36.724Z,0.95
2023-09-24T17:40:08.599Z,1.00
2023-09-24T17:42:41.432Z,1.00
2023-09-24T17:45:17.545Z,1.10
2023-09-24T17:47:45.645Z,1.30
2023-09-24T17:50:16.810Z,1.10
2023-09-24T17:52:46.654Z,1.10
2023-09-24T17:55:17.209Z,1.08
2023-09-24T17:57:43.870Z,0.95
2023-09-24T18:00:25.017Z,1.08
2023-09-24T18:02:57.964Z,1.15
2023-09-24T18:05:27.863Z,1.00
2023-09-24T18:07:54.481Z,1.00
2023-09-24T18:10:21.049Z,1.33
2023-09-24T18:12:47.600Z,1.40
2023-09-24T18:15:29.201Z,1.10
2023-09-24T18:18:12.874Z,1.30
2023-09-24T18:20:39.945Z,1.10
2023-09-24T18:23:06.389Z,1.20
2023-09-24T18:25:41.022Z,1.10
2023-09-24T18:28:12.830Z,1.08
2023-09-24T18:30:42.157Z,1.10
2023-09-24T18:33:11.835Z,1.00
2023-09-24T18:35:41.589Z,1.10
2023-09-24T18:38:09.145Z,1.30
2023-09-24T18:40:36.707Z,1.30
2023-09-24T18:43:09.080Z,1.10
2023-09-24T18:45:36.357Z,1.20
2023-09-24T18:48:03.253Z,0.90
2023-09-24T18:50:29.984Z,0.93
2023-09-24T18:52:57.788Z,1.20
2023-09-24T18:55:24.359Z,1.03
2023-09-24T18:57:50.835Z,1.00
2023-09-24T19:00:17.482Z,1.10
2023-09-24T19:02:44.251Z,1.00
2023-09-24T19:05:11.671Z,1.00
2023-09-24T19:07:38.547Z,1.00
2023-09-24T19:10:10.073Z,0.88
2023-09-24T19:12:36.542Z,0.70
2023-09-24T19:15:03.335Z,0.73
2023-09-24T19:17:30.042Z,0.82
2023-09-24T19:19:56.600Z,0.73
2023-09-24T19:22:25.129Z,0.90
2023-09-24T19:24:52.591Z,0.90
2023-09-24T19:27:20.687Z,0.90
2023-09-24T19:29:47.320Z,1.02
2023-09-24T19:32:13.962Z,0.80
2023-09-24T19:34:40.551Z,1.00
2023-09-24T19:37:07.461Z,0.80
2023-09-24T19:39:34.061Z,0.93
2023-09-24T19:42:00.969Z,0.95
2023-09-24T19:44:29.231Z,0.80
2023-09-24T19:46:55.898Z,1.00
2023-09-24T19:49:31.640Z,0.90
2023-09-24T19:51:58.222Z,0.90
2023-09-24T19:54:27.001Z,0.90
2023-09-24T19:56:53.666Z,1.07
2023-09-24T19:59:20.315Z,1.00
2023-09-24T20:01:48.256Z,1.73
2023-09-24T20:04:17.670Z,1.00
2023-09-24T20:06:44.240Z,1.00
2023-09-24T20:09:14.122Z,1.20
2023-09-24T20:11:43.630Z,1.10
2023-09-24T20:14:10.327Z,0.70
2023-09-24T20:16:37.057Z,0.95
2023-09-24T20:19:05.136Z,0.82
2023-09-24T20:21:32.345Z,0.90
2023-09-24T20:23:59.178Z,0.98
2023-09-24T20:26:25.701Z,1.00
2023-09-24T20:28:52.301Z,0.95
2023-09-24T20:31:20.934Z,0.90
2023-09-24T20:34:00.053Z,1.00
2023-09-24T20:36:29.210Z,0.98
2023-09-24T20:39:01.662Z,0.88
2023-09-24T20:41:28.771Z,1.00
2023-09-24T20:43:55.703Z,0.73
2023-09-24T20:46:23.747Z,1.20
2023-09-24T20:48:50.535Z,0.90
2023-09-24T20:51:17.330Z,0.80
2023-09-24T20:53:45.477Z,0.80
2023-09-24T20:56:15.190Z,0.80
2023-09-24T20:58:43.498Z,0.93
2023-09-24T21:01:10.149Z,0.70
2023-09-24T21:03:37.700Z,1.10
2023-09-24T21:06:04.791Z,0.80
2023-09-24T21:08:31.313Z,0.90
2023-09-24T21:10:59.324Z,0.93
2023-09-24T21:13:25.972Z,0.95
2023-09-24T21:15:52.593Z,1.00
2023-09-24T21:18:19.292Z,0.90
2023-09-24T21:20:47.859Z,1.00
2023-09-24T21:23:17.145Z,0.90
2023-09-24T21:25:43.819Z,0.90
2023-09-24T21:28:11.848Z,0.90
2023-09-24T21:30:38.622Z,1.00
2023-09-24T21:33:05.779Z,0.90
2023-09-24T21:35:32.479Z,0.90
2023-09-24T21:37:59.147Z,0.90
2023-09-24T21:40:25.651Z,0.80
2023-09-24T21:42:52.496Z,0.90
2023-09-24T21:45:21.116Z,0.80
2023-09-24T21:47:47.722Z,1.00
2023-09-24T21:50:15.195Z,0.85
2023-09-24T21:52:41.991Z,1.10
2023-09-24T21:55:10.000Z,0.80
2023-09-24T21:57:36.530Z,0.77
2023-09-24T22:00:03.504Z,0.87
2023-09-24T22:02:32.214Z,1.13
2023-09-24T22:04:59.021Z,0.73
2023-09-24T22:07:28.742Z,0.88
2023-09-24T22:09:55.770Z,0.90
2023-09-24T22:12:22.647Z,0.90
2023-09-24T22:14:49.134Z,0.88
2023-09-24T22:17:15.695Z,1.35
2023-09-24T22:19:57.180Z,0.90
2023-09-24T22:22:24.126Z,1.00
2023-09-24T22:24:51.186Z,1.00
2023-09-24T22:27:18.217Z,0.70
2023-09-24T22:29:46.694Z,0.90
2023-09-24T22:32:13.479Z,1.10
2023-09-24T22:35:01.124Z,1.00
2023-09-24T22:37:27.835Z,1.00
2023-09-24T22:39:54.375Z,0.85
2023-09-24T22:42:22.403Z,0.90
2023-09-24T22:44:49.165Z,0.90
2023-09-24T22:47:15.730Z,0.88
2023-09-24T22:49:43.218Z,1.00
2023-09-24T22:52:11.680Z,0.80
2023-09-24T22:54:38.377Z,1.00
2023-09-24T22:57:05.246Z,0.80
2023-09-24T22:59:31.867Z,0.80
2023-09-24T23:01:58.631Z,1.00
2023-09-24T23:04:25.252Z,1.00
2023-09-24T23:06:52.032Z,0.80
2023-09-24T23:09:19.925Z,1.02
2023-09-24T23:11:46.840Z,0.88
2023-09-24T23:14:13.249Z,0.90
2023-09-24T23:16:39.788Z,1.05
2023-09-24T23:19:06.267Z,0.80
2023-09-24T23:21:32.847Z,1.05
2023-09-24T23:23:59.584Z,0.90
2023-09-24T23:26:27.608Z,0.80
2023-09-24T23:28:54.560Z,1.00
2023-09-24T23:31:21.336Z,0.80
2023-09-24T23:33:47.820Z,0.90
2023-09-24T23:36:14.464Z,0.90
2023-09-24T23:38:40.872Z,1.33
2023-09-24T23:41:07.515Z,0.77
2023-09-24T23:43:35.418Z,0.80
2023-09-24T23:46:02.221Z,1.02
2023-09-24T23:48:28.771Z,1.00
2023-09-24T23:50:55.280Z,0.77
2023-09-24T23:53:21.679Z,0.88
2023-09-24T23:55:50.622Z,0.90
2023-09-24T23:58:17.108Z,0.93
